CheckWX is a tool to help pilots better visualize weather data.  It is not intended as a substitute for an official pre-flight weather briefing.

18:43:52 UTC

PTYA TAF
Yap International Airport
Yap Island, Federated States of Micronesia
PTYA 201726Z 2018/2118 31010KT P6SM VCSH SCT016 BKN130

Sep-20@
18:00 UTC

Sep-20 @ 18:00 UTC

Sep-21@
18:00 UTC

Sep-21 @ 18:00 UTC

PTYA 201726Z 2018/2118 31010KT P6SM VCSH SCT016 BKN130
Wind
  • 310° at 10 KTS
Cloud Levels
  • Scattered at 1,600' AGL
  • Broken at 13,000' AGL